sensor_id;sensor_type;location;lat;lon;timestamp;P1;durP1;ratioP1;P2;durP2;ratioP2
57593;SDS011;43423;46.510;6.686;2023-11-21T00:01:36;6.53;;;1.55;;
57593;SDS011;43423;46.510;6.686;2023-11-21T00:04:01;3.03;;;1.30;;
57593;SDS011;43423;46.510;6.686;2023-11-21T00:06:27;7.30;;;1.13;;
57593;SDS011;43423;46.510;6.686;2023-11-21T00:08:53;3.17;;;1.33;;
57593;SDS011;43423;46.510;6.686;2023-11-21T00:11:18;7.13;;;1.73;;
57593;SDS011;43423;46.510;6.686;2023-11-21T00:13:44;8.18;;;1.60;;
57593;SDS011;43423;46.510;6.686;2023-11-21T00:16:10;10.23;;;1.50;;
57593;SDS011;43423;46.510;6.686;2023-11-21T00:18:36;5.68;;;1.73;;
57593;SDS011;43423;46.510;6.686;2023-11-21T00:21:02;8.77;;;1.95;;
57593;SDS011;43423;46.510;6.686;2023-11-21T00:23:29;12.15;;;1.70;;
57593;SDS011;43423;46.510;6.686;2023-11-21T00:25:54;5.60;;;1.17;;
57593;SDS011;43423;46.510;6.686;2023-11-21T00:28:20;6.47;;;1.83;;
57593;SDS011;43423;46.510;6.686;2023-11-21T00:30:45;2.55;;;0.98;;
57593;SDS011;43423;46.510;6.686;2023-11-21T00:33:11;3.33;;;1.20;;
57593;SDS011;43423;46.510;6.686;2023-11-21T00:35:36;2.72;;;1.50;;
57593;SDS011;43423;46.510;6.686;2023-11-21T00:38:02;5.47;;;1.23;;
57593;SDS011;43423;46.510;6.686;2023-11-21T00:40:28;6.00;;;1.13;;
57593;SDS011;43423;46.510;6.686;2023-11-21T00:42:54;3.88;;;1.23;;
57593;SDS011;43423;46.510;6.686;2023-11-21T00:45:21;8.30;;;1.75;;
57593;SDS011;43423;46.510;6.686;2023-11-21T00:47:46;1.50;;;0.68;;
57593;SDS011;43423;46.510;6.686;2023-11-21T00:50:12;5.65;;;1.15;;
57593;SDS011;43423;46.510;6.686;2023-11-21T00:52:38;3.38;;;0.90;;
57593;SDS011;43423;46.510;6.686;2023-11-21T00:55:04;5.35;;;0.93;;
57593;SDS011;43423;46.510;6.686;2023-11-21T00:57:33;5.95;;;0.90;;
57593;SDS011;43423;46.510;6.686;2023-11-21T00:59:58;2.38;;;1.08;;
57593;SDS011;43423;46.510;6.686;2023-11-21T01:02:24;5.47;;;1.40;;
57593;SDS011;43423;46.510;6.686;2023-11-21T01:04:51;3.55;;;0.80;;
57593;SDS011;43423;46.510;6.686;2023-11-21T01:07:16;4.47;;;1.10;;
57593;SDS011;43423;46.510;6.686;2023-11-21T01:09:45;4.85;;;1.42;;
57593;SDS011;43423;46.510;6.686;2023-11-21T01:12:11;5.97;;;0.90;;
57593;SDS011;43423;46.510;6.686;2023-11-21T01:14:37;2.25;;;0.95;;
57593;SDS011;43423;46.510;6.686;2023-11-21T01:17:03;2.75;;;0.40;;
57593;SDS011;43423;46.510;6.686;2023-11-21T01:19:30;1.10;;;0.63;;
57593;SDS011;43423;46.510;6.686;2023-11-21T01:21:55;3.65;;;0.75;;
57593;SDS011;43423;46.510;6.686;2023-11-21T01:24:23;0.65;;;0.55;;
57593;SDS011;43423;46.510;6.686;2023-11-21T01:26:49;2.38;;;0.93;;
57593;SDS011;43423;46.510;6.686;2023-11-21T01:29:14;5.57;;;0.85;;
57593;SDS011;43423;46.510;6.686;2023-11-21T01:31:40;3.55;;;0.68;;
57593;SDS011;43423;46.510;6.686;2023-11-21T01:34:06;2.30;;;0.57;;
57593;SDS011;43423;46.510;6.686;2023-11-21T01:36:32;1.70;;;0.50;;
57593;SDS011;43423;46.510;6.686;2023-11-21T01:38:58;5.63;;;1.05;;
57593;SDS011;43423;46.510;6.686;2023-11-21T01:41:27;1.35;;;0.40;;
57593;SDS011;43423;46.510;6.686;2023-11-21T01:43:56;2.38;;;1.00;;
57593;SDS011;43423;46.510;6.686;2023-11-21T01:46:22;2.88;;;0.60;;
57593;SDS011;43423;46.510;6.686;2023-11-21T01:48:48;2.13;;;0.47;;
57593;SDS011;43423;46.510;6.686;2023-11-21T01:51:15;1.08;;;0.50;;
57593;SDS011;43423;46.510;6.686;2023-11-21T01:53:41;3.00;;;0.50;;
57593;SDS011;43423;46.510;6.686;2023-11-21T01:56:07;1.23;;;0.57;;
57593;SDS011;43423;46.510;6.686;2023-11-21T01:58:34;1.80;;;0.40;;
57593;SDS011;43423;46.510;6.686;2023-11-21T02:01:01;1.60;;;0.63;;
57593;SDS011;43423;46.510;6.686;2023-11-21T02:03:26;1.02;;;0.30;;
57593;SDS011;43423;46.510;6.686;2023-11-21T02:05:53;1.35;;;0.50;;
57593;SDS011;43423;46.510;6.686;2023-11-21T02:08:18;3.22;;;0.73;;
57593;SDS011;43423;46.510;6.686;2023-11-21T02:10:45;2.85;;;0.50;;
57593;SDS011;43423;46.510;6.686;2023-11-21T02:13:11;2.15;;;0.60;;
57593;SDS011;43423;46.510;6.686;2023-11-21T02:15:37;4.32;;;0.70;;
57593;SDS011;43423;46.510;6.686;2023-11-21T02:18:03;2.83;;;0.50;;
57593;SDS011;43423;46.510;6.686;2023-11-21T02:20:31;0.60;;;0.60;;
57593;SDS011;43423;46.510;6.686;2023-11-21T02:23:00;1.55;;;0.50;;
57593;SDS011;43423;46.510;6.686;2023-11-21T02:25:30;1.60;;;0.60;;
57593;SDS011;43423;46.510;6.686;2023-11-21T02:27:57;2.97;;;0.80;;
57593;SDS011;43423;46.510;6.686;2023-11-21T02:30:24;0.63;;;0.63;;
57593;SDS011;43423;46.510;6.686;2023-11-21T02:32:50;2.85;;;0.68;;
57593;SDS011;43423;46.510;6.686;2023-11-21T02:35:18;4.43;;;0.88;;
57593;SDS011;43423;46.510;6.686;2023-11-21T02:37:46;3.75;;;1.15;;
57593;SDS011;43423;46.510;6.686;2023-11-21T02:40:12;1.95;;;0.70;;
57593;SDS011;43423;46.510;6.686;2023-11-21T02:42:39;4.72;;;0.77;;
57593;SDS011;43423;46.510;6.686;2023-11-21T02:45:06;1.88;;;0.60;;
57593;SDS011;43423;46.510;6.686;2023-11-21T02:47:32;4.80;;;0.60;;
57593;SDS011;43423;46.510;6.686;2023-11-21T02:49:59;4.78;;;0.88;;
57593;SDS011;43423;46.510;6.686;2023-11-21T02:52:24;2.35;;;0.90;;
57593;SDS011;43423;46.510;6.686;2023-11-21T02:54:50;4.50;;;0.88;;
57593;SDS011;43423;46.510;6.686;2023-11-21T02:57:16;2.55;;;0.60;;
57593;SDS011;43423;46.510;6.686;2023-11-21T02:59:42;3.90;;;0.90;;
57593;SDS011;43423;46.510;6.686;2023-11-21T03:02:08;7.70;;;1.30;;
57593;SDS011;43423;46.510;6.686;2023-11-21T03:04:34;3.47;;;0.68;;
57593;SDS011;43423;46.510;6.686;2023-11-21T03:07:00;2.92;;;0.60;;
57593;SDS011;43423;46.510;6.686;2023-11-21T03:09:26;2.78;;;1.00;;
57593;SDS011;43423;46.510;6.686;2023-11-21T03:11:52;4.07;;;0.70;;
57593;SDS011;43423;46.510;6.686;2023-11-21T03:14:19;2.67;;;0.60;;
57593;SDS011;43423;46.510;6.686;2023-11-21T03:16:44;9.07;;;0.90;;
57593;SDS011;43423;46.510;6.686;2023-11-21T03:19:11;3.85;;;0.80;;
57593;SDS011;43423;46.510;6.686;2023-11-21T03:21:36;2.33;;;1.00;;
57593;SDS011;43423;46.510;6.686;2023-11-21T03:24:02;5.22;;;0.85;;
57593;SDS011;43423;46.510;6.686;2023-11-21T03:26:28;2.05;;;0.70;;
57593;SDS011;43423;46.510;6.686;2023-11-21T03:28:55;1.38;;;0.68;;
57593;SDS011;43423;46.510;6.686;2023-11-21T03:31:20;0.60;;;0.60;;
57593;SDS011;43423;46.510;6.686;2023-11-21T03:33:46;3.10;;;0.60;;
57593;SDS011;43423;46.510;6.686;2023-11-21T03:36:12;1.13;;;0.68;;
57593;SDS011;43423;46.510;6.686;2023-11-21T03:38:40;2.95;;;1.00;;
57593;SDS011;43423;46.510;6.686;2023-11-21T03:41:06;8.35;;;0.88;;
57593;SDS011;43423;46.510;6.686;2023-11-21T03:43:32;1.25;;;0.73;;
57593;SDS011;43423;46.510;6.686;2023-11-21T03:45:58;0.70;;;0.50;;
57593;SDS011;43423;46.510;6.686;2023-11-21T03:48:23;3.35;;;0.68;;
57593;SDS011;43423;46.510;6.686;2023-11-21T03:50:49;1.95;;;0.68;;
57593;SDS011;43423;46.510;6.686;2023-11-21T03:53:15;3.80;;;0.95;;
57593;SDS011;43423;46.510;6.686;2023-11-21T03:55:40;2.67;;;0.80;;
57593;SDS011;43423;46.510;6.686;2023-11-21T03:58:06;3.05;;;0.40;;
57593;SDS011;43423;46.510;6.686;2023-11-21T04:00:31;1.60;;;0.52;;
57593;SDS011;43423;46.510;6.686;2023-11-21T04:02:57;1.77;;;0.75;;
57593;SDS011;43423;46.510;6.686;2023-11-21T04:05:23;7.22;;;1.33;;
57593;SDS011;43423;46.510;6.686;2023-11-21T04:07:49;7.43;;;0.88;;
57593;SDS011;43423;46.510;6.686;2023-11-21T04:10:15;5.45;;;1.02;;
57593;SDS011;43423;46.510;6.686;2023-11-21T04:12:41;2.58;;;0.70;;
57593;SDS011;43423;46.510;6.686;2023-11-21T04:15:07;2.85;;;0.73;;
57593;SDS011;43423;46.510;6.686;2023-11-21T04:17:34;3.42;;;0.80;;
57593;SDS011;43423;46.510;6.686;2023-11-21T04:20:00;0.95;;;0.75;;
57593;SDS011;43423;46.510;6.686;2023-11-21T04:22:26;1.10;;;0.50;;
57593;SDS011;43423;46.510;6.686;2023-11-21T04:24:51;1.63;;;0.82;;
57593;SDS011;43423;46.510;6.686;2023-11-21T04:27:17;2.45;;;0.90;;
57593;SDS011;43423;46.510;6.686;2023-11-21T04:29:43;5.43;;;0.70;;
57593;SDS011;43423;46.510;6.686;2023-11-21T04:32:09;1.60;;;0.68;;
57593;SDS011;43423;46.510;6.686;2023-11-21T04:34:35;1.52;;;0.52;;
57593;SDS011;43423;46.510;6.686;2023-11-21T04:37:01;2.30;;;0.73;;
57593;SDS011;43423;46.510;6.686;2023-11-21T04:39:28;1.58;;;0.80;;
57593;SDS011;43423;46.510;6.686;2023-11-21T04:41:54;6.05;;;1.33;;
57593;SDS011;43423;46.510;6.686;2023-11-21T04:44:19;1.08;;;0.50;;
57593;SDS011;43423;46.510;6.686;2023-11-21T04:46:45;3.70;;;0.70;;
57593;SDS011;43423;46.510;6.686;2023-11-21T04:49:11;2.47;;;0.77;;
57593;SDS011;43423;46.510;6.686;2023-11-21T04:51:37;1.85;;;0.40;;
57593;SDS011;43423;46.510;6.686;2023-11-21T04:54:02;0.73;;;0.47;;
57593;SDS011;43423;46.510;6.686;2023-11-21T04:56:28;1.20;;;0.35;;
57593;SDS011;43423;46.510;6.686;2023-11-21T04:58:54;3.03;;;0.68;;
57593;SDS011;43423;46.510;6.686;2023-11-21T05:01:20;2.47;;;0.68;;
57593;SDS011;43423;46.510;6.686;2023-11-21T05:03:46;4.05;;;0.82;;
57593;SDS011;43423;46.510;6.686;2023-11-21T05:06:13;6.88;;;1.00;;
57593;SDS011;43423;46.510;6.686;2023-11-21T05:08:39;1.55;;;0.50;;
57593;SDS011;43423;46.510;6.686;2023-11-21T05:11:05;4.75;;;0.77;;
57593;SDS011;43423;46.510;6.686;2023-11-21T05:13:33;6.40;;;0.82;;
57593;SDS011;43423;46.510;6.686;2023-11-21T05:15:59;2.58;;;1.00;;
57593;SDS011;43423;46.510;6.686;2023-11-21T05:18:25;3.00;;;1.02;;
57593;SDS011;43423;46.510;6.686;2023-11-21T05:20:52;2.70;;;0.47;;
57593;SDS011;43423;46.510;6.686;2023-11-21T05:23:18;4.25;;;1.33;;
57593;SDS011;43423;46.510;6.686;2023-11-21T05:25:44;3.03;;;0.80;;
57593;SDS011;43423;46.510;6.686;2023-11-21T05:28:11;4.60;;;0.90;;
57593;SDS011;43423;46.510;6.686;2023-11-21T05:30:37;5.25;;;0.73;;
57593;SDS011;43423;46.510;6.686;2023-11-21T05:33:04;3.50;;;0.60;;
57593;SDS011;43423;46.510;6.686;2023-11-21T05:35:30;3.25;;;0.85;;
57593;SDS011;43423;46.510;6.686;2023-11-21T05:37:56;1.10;;;0.63;;
57593;SDS011;43423;46.510;6.686;2023-11-21T05:40:22;5.80;;;0.85;;
57593;SDS011;43423;46.510;6.686;2023-11-21T05:42:48;3.67;;;0.80;;
57593;SDS011;43423;46.510;6.686;2023-11-21T05:45:14;2.97;;;0.95;;
57593;SDS011;43423;46.510;6.686;2023-11-21T05:47:44;1.77;;;0.90;;
57593;SDS011;43423;46.510;6.686;2023-11-21T05:50:11;1.45;;;1.35;;
57593;SDS011;43423;46.510;6.686;2023-11-21T05:52:40;3.33;;;1.23;;
57593;SDS011;43423;46.510;6.686;2023-11-21T05:55:10;2.70;;;1.20;;
57593;SDS011;43423;46.510;6.686;2023-11-21T05:57:36;3.15;;;1.30;;
57593;SDS011;43423;46.510;6.686;2023-11-21T06:00:04;4.05;;;1.40;;
57593;SDS011;43423;46.510;6.686;2023-11-21T06:02:39;1.42;;;1.08;;
57593;SDS011;43423;46.510;6.686;2023-11-21T06:05:09;1.25;;;0.73;;
57593;SDS011;43423;46.510;6.686;2023-11-21T06:07:35;2.08;;;0.93;;
57593;SDS011;43423;46.510;6.686;2023-11-21T06:10:02;6.95;;;0.90;;
57593;SDS011;43423;46.510;6.686;2023-11-21T06:12:31;3.25;;;0.88;;
57593;SDS011;43423;46.510;6.686;2023-11-21T06:15:01;1.95;;;0.80;;
57593;SDS011;43423;46.510;6.686;2023-11-21T06:17:30;1.85;;;1.10;;
57593;SDS011;43423;46.510;6.686;2023-11-21T06:20:02;1.67;;;0.60;;
57593;SDS011;43423;46.510;6.686;2023-11-21T06:22:34;3.33;;;0.95;;
57593;SDS011;43423;46.510;6.686;2023-11-21T06:25:04;4.22;;;0.82;;
57593;SDS011;43423;46.510;6.686;2023-11-21T06:27:34;4.95;;;1.17;;
57593;SDS011;43423;46.510;6.686;2023-11-21T06:30:02;2.58;;;0.98;;
57593;SDS011;43423;46.510;6.686;2023-11-21T06:32:29;7.35;;;1.45;;
57593;SDS011;43423;46.510;6.686;2023-11-21T06:34:58;5.32;;;0.90;;
57593;SDS011;43423;46.510;6.686;2023-11-21T06:37:26;3.08;;;0.75;;
57593;SDS011;43423;46.510;6.686;2023-11-21T06:39:53;5.85;;;1.10;;
57593;SDS011;43423;46.510;6.686;2023-11-21T06:42:19;4.10;;;1.17;;
57593;SDS011;43423;46.510;6.686;2023-11-21T06:44:45;3.83;;;0.88;;
57593;SDS011;43423;46.510;6.686;2023-11-21T06:47:11;4.78;;;0.77;;
57593;SDS011;43423;46.510;6.686;2023-11-21T06:49:36;3.35;;;0.93;;
57593;SDS011;43423;46.510;6.686;2023-11-21T06:52:04;1.27;;;0.73;;
57593;SDS011;43423;46.510;6.686;2023-11-21T06:54:33;3.13;;;0.70;;
57593;SDS011;43423;46.510;6.686;2023-11-21T06:56:59;6.65;;;0.80;;
57593;SDS011;43423;46.510;6.686;2023-11-21T06:59:25;1.60;;;0.77;;
57593;SDS011;43423;46.510;6.686;2023-11-21T07:01:51;1.17;;;0.55;;
57593;SDS011;43423;46.510;6.686;2023-11-21T07:04:16;5.85;;;1.25;;
57593;SDS011;43423;46.510;6.686;2023-11-21T07:06:43;2.40;;;1.10;;
57593;SDS011;43423;46.510;6.686;2023-11-21T07:09:09;8.02;;;1.27;;
57593;SDS011;43423;46.510;6.686;2023-11-21T07:11:37;2.00;;;0.88;;
57593;SDS011;43423;46.510;6.686;2023-11-21T07:14:03;8.40;;;1.20;;
57593;SDS011;43423;46.510;6.686;2023-11-21T07:16:36;6.80;;;1.45;;
57593;SDS011;43423;46.510;6.686;2023-11-21T07:19:06;2.22;;;1.00;;
57593;SDS011;43423;46.510;6.686;2023-11-21T07:21:33;1.60;;;0.90;;
57593;SDS011;43423;46.510;6.686;2023-11-21T07:24:02;3.10;;;0.77;;
57593;SDS011;43423;46.510;6.686;2023-11-21T07:26:32;4.32;;;0.93;;
57593;SDS011;43423;46.510;6.686;2023-11-21T07:28:58;2.75;;;1.48;;
57593;SDS011;43423;46.510;6.686;2023-11-21T07:31:25;2.00;;;1.42;;
57593;SDS011;43423;46.510;6.686;2023-11-21T07:33:51;7.32;;;0.82;;
57593;SDS011;43423;46.510;6.686;2023-11-21T07:36:18;6.05;;;1.33;;
57593;SDS011;43423;46.510;6.686;2023-11-21T07:38:45;2.67;;;1.10;;
57593;SDS011;43423;46.510;6.686;2023-11-21T07:41:12;3.85;;;0.90;;
57593;SDS011;43423;46.510;6.686;2023-11-21T07:43:41;6.55;;;1.80;;
57593;SDS011;43423;46.510;6.686;2023-11-21T07:46:07;5.07;;;1.52;;
57593;SDS011;43423;46.510;6.686;2023-11-21T07:48:33;7.47;;;1.33;;
57593;SDS011;43423;46.510;6.686;2023-11-21T07:51:02;4.18;;;1.17;;
57593;SDS011;43423;46.510;6.686;2023-11-21T07:53:32;2.72;;;1.33;;
57593;SDS011;43423;46.510;6.686;2023-11-21T07:55:58;8.90;;;1.48;;
57593;SDS011;43423;46.510;6.686;2023-11-21T07:58:27;7.82;;;1.58;;
57593;SDS011;43423;46.510;6.686;2023-11-21T08:00:53;1.80;;;1.33;;
57593;SDS011;43423;46.510;6.686;2023-11-21T08:03:19;8.60;;;1.40;;
57593;SDS011;43423;46.510;6.686;2023-11-21T08:05:45;3.15;;;1.13;;
57593;SDS011;43423;46.510;6.686;2023-11-21T08:08:10;4.43;;;1.17;;
57593;SDS011;43423;46.510;6.686;2023-11-21T08:10:36;11.30;;;1.73;;
57593;SDS011;43423;46.510;6.686;2023-11-21T08:13:02;5.80;;;1.70;;
57593;SDS011;43423;46.510;6.686;2023-11-21T08:15:29;3.72;;;1.80;;
57593;SDS011;43423;46.510;6.686;2023-11-21T08:17:57;7.97;;;2.15;;
57593;SDS011;43423;46.510;6.686;2023-11-21T08:20:24;6.10;;;2.83;;
57593;SDS011;43423;46.510;6.686;2023-11-21T08:22:50;17.13;;;7.68;;
57593;SDS011;43423;46.510;6.686;2023-11-21T08:25:17;21.77;;;9.85;;
57593;SDS011;43423;46.510;6.686;2023-11-21T08:27:45;19.52;;;7.47;;
57593;SDS011;43423;46.510;6.686;2023-11-21T08:30:11;13.63;;;5.88;;
57593;SDS011;43423;46.510;6.686;2023-11-21T08:32:39;12.45;;;4.10;;
57593;SDS011;43423;46.510;6.686;2023-11-21T08:35:05;7.50;;;2.63;;
57593;SDS011;43423;46.510;6.686;2023-11-21T08:37:31;2.22;;;1.60;;
57593;SDS011;43423;46.510;6.686;2023-11-21T08:39:58;7.35;;;2.08;;
57593;SDS011;43423;46.510;6.686;2023-11-21T08:42:27;3.92;;;2.05;;
57593;SDS011;43423;46.510;6.686;2023-11-21T08:44:55;5.68;;;1.73;;
57593;SDS011;43423;46.510;6.686;2023-11-21T08:47:23;6.25;;;2.00;;
57593;SDS011;43423;46.510;6.686;2023-11-21T08:49:50;9.23;;;2.33;;
57593;SDS011;43423;46.510;6.686;2023-11-21T08:52:18;4.82;;;1.77;;
57593;SDS011;43423;46.510;6.686;2023-11-21T08:54:48;11.13;;;1.70;;
57593;SDS011;43423;46.510;6.686;2023-11-21T08:57:21;6.50;;;1.80;;
57593;SDS011;43423;46.510;6.686;2023-11-21T08:59:47;6.85;;;2.05;;
57593;SDS011;43423;46.510;6.686;2023-11-21T09:02:13;12.00;;;2.17;;
57593;SDS011;43423;46.510;6.686;2023-11-21T09:04:39;13.52;;;2.55;;
57593;SDS011;43423;46.510;6.686;2023-11-21T09:07:04;9.88;;;1.92;;
57593;SDS011;43423;46.510;6.686;2023-11-21T09:09:30;5.93;;;2.30;;
57593;SDS011;43423;46.510;6.686;2023-11-21T09:11:56;9.52;;;2.65;;
57593;SDS011;43423;46.510;6.686;2023-11-21T09:14:22;5.03;;;1.90;;
57593;SDS011;43423;46.510;6.686;2023-11-21T09:16:48;6.82;;;1.50;;
57593;SDS011;43423;46.510;6.686;2023-11-21T09:19:16;6.90;;;2.33;;
57593;SDS011;43423;46.510;6.686;2023-11-21T09:21:41;4.75;;;1.70;;
57593;SDS011;43423;46.510;6.686;2023-11-21T09:24:07;13.52;;;1.80;;
57593;SDS011;43423;46.510;6.686;2023-11-21T09:26:34;6.00;;;1.85;;
57593;SDS011;43423;46.510;6.686;2023-11-21T09:29:00;5.75;;;1.70;;
57593;SDS011;43423;46.510;6.686;2023-11-21T09:31:27;2.85;;;1.70;;
57593;SDS011;43423;46.510;6.686;2023-11-21T09:33:53;14.70;;;2.05;;
57593;SDS011;43423;46.510;6.686;2023-11-21T09:36:18;5.07;;;1.67;;
57593;SDS011;43423;46.510;6.686;2023-11-21T09:38:44;8.48;;;1.70;;
57593;SDS011;43423;46.510;6.686;2023-11-21T09:41:21;4.72;;;1.58;;
57593;SDS011;43423;46.510;6.686;2023-11-21T09:43:51;2.78;;;1.40;;
57593;SDS011;43423;46.510;6.686;2023-11-21T09:46:22;7.05;;;1.88;;
57593;SDS011;43423;46.510;6.686;2023-11-21T09:48:50;6.10;;;2.25;;
57593;SDS011;43423;46.510;6.686;2023-11-21T09:51:19;4.10;;;2.00;;
57593;SDS011;43423;46.510;6.686;2023-11-21T09:53:47;16.88;;;2.75;;
57593;SDS011;43423;46.510;6.686;2023-11-21T09:56:17;8.13;;;1.90;;
57593;SDS011;43423;46.510;6.686;2023-11-21T09:58:52;7.07;;;1.80;;
57593;SDS011;43423;46.510;6.686;2023-11-21T10:01:18;5.05;;;2.08;;
57593;SDS011;43423;46.510;6.686;2023-11-21T10:03:46;5.65;;;2.05;;
57593;SDS011;43423;46.510;6.686;2023-11-21T10:06:12;4.47;;;1.83;;
57593;SDS011;43423;46.510;6.686;2023-11-21T10:08:41;4.75;;;1.77;;
57593;SDS011;43423;46.510;6.686;2023-11-21T10:11:08;10.98;;;2.35;;
57593;SDS011;43423;46.510;6.686;2023-11-21T10:13:37;4.63;;;1.90;;
57593;SDS011;43423;46.510;6.686;2023-11-21T10:16:02;8.98;;;2.13;;
57593;SDS011;43423;46.510;6.686;2023-11-21T10:18:31;4.03;;;1.90;;
57593;SDS011;43423;46.510;6.686;2023-11-21T10:20:59;6.57;;;1.95;;
57593;SDS011;43423;46.510;6.686;2023-11-21T10:23:26;7.07;;;2.53;;
57593;SDS011;43423;46.510;6.686;2023-11-21T10:25:53;6.53;;;2.03;;
57593;SDS011;43423;46.510;6.686;2023-11-21T10:28:20;8.15;;;2.13;;
57593;SDS011;43423;46.510;6.686;2023-11-21T10:30:46;3.63;;;2.25;;
57593;SDS011;43423;46.510;6.686;2023-11-21T10:33:12;7.13;;;2.40;;
57593;SDS011;43423;46.510;6.686;2023-11-21T10:35:48;10.02;;;2.05;;
57593;SDS011;43423;46.510;6.686;2023-11-21T10:38:20;8.43;;;2.10;;
57593;SDS011;43423;46.510;6.686;2023-11-21T10:40:48;11.30;;;2.20;;
57593;SDS011;43423;46.510;6.686;2023-11-21T10:43:14;7.82;;;1.67;;
57593;SDS011;43423;46.510;6.686;2023-11-21T10:45:40;7.20;;;2.53;;
57593;SDS011;43423;46.510;6.686;2023-11-21T10:48:08;9.73;;;2.58;;
57593;SDS011;43423;46.510;6.686;2023-11-21T10:50:36;6.07;;;1.90;;
57593;SDS011;43423;46.510;6.686;2023-11-21T10:53:06;5.70;;;2.20;;
57593;SDS011;43423;46.510;6.686;2023-11-21T10:55:32;5.40;;;1.95;;
57593;SDS011;43423;46.510;6.686;2023-11-21T10:57:59;6.35;;;2.13;;
57593;SDS011;43423;46.510;6.686;2023-11-21T11:00:27;7.45;;;2.33;;
57593;SDS011;43423;46.510;6.686;2023-11-21T11:02:54;9.80;;;2.13;;
57593;SDS011;43423;46.510;6.686;2023-11-21T11:05:21;5.13;;;1.83;;
57593;SDS011;43423;46.510;6.686;2023-11-21T11:07:52;10.60;;;1.92;;
57593;SDS011;43423;46.510;6.686;2023-11-21T11:10:25;8.32;;;1.77;;
57593;SDS011;43423;46.510;6.686;2023-11-21T11:12:56;5.95;;;1.88;;
57593;SDS011;43423;46.510;6.686;2023-11-21T11:15:23;3.23;;;1.77;;
57593;SDS011;43423;46.510;6.686;2023-11-21T11:17:49;5.72;;;2.13;;
57593;SDS011;43423;46.510;6.686;2023-11-21T11:20:16;4.40;;;1.88;;
57593;SDS011;43423;46.510;6.686;2023-11-21T11:22:51;4.75;;;2.30;;
57593;SDS011;43423;46.510;6.686;2023-11-21T11:34:46;3.22;;;1.05;;
57593;SDS011;43423;46.510;6.686;2023-11-21T11:37:19;8.00;;;2.05;;
57593;SDS011;43423;46.510;6.686;2023-11-21T11:39:46;1.85;;;1.10;;
57593;SDS011;43423;46.510;6.686;2023-11-21T11:42:12;1.92;;;0.45;;
57593;SDS011;43423;46.510;6.686;2023-11-21T11:47:21;6.93;;;1.25;;
57593;SDS011;43423;46.510;6.686;2023-11-21T11:52:44;1.67;;;0.85;;
57593;SDS011;43423;46.510;6.686;2023-11-21T11:55:12;4.18;;;1.40;;
57593;SDS011;43423;46.510;6.686;2023-11-21T11:57:40;4.47;;;0.90;;
57593;SDS011;43423;46.510;6.686;2023-11-21T12:00:22;2.53;;;1.38;;
57593;SDS011;43423;46.510;6.686;2023-11-21T12:03:02;4.20;;;1.27;;
57593;SDS011;43423;46.510;6.686;2023-11-21T12:05:30;5.03;;;0.93;;
57593;SDS011;43423;46.510;6.686;2023-11-21T12:08:10;7.85;;;2.65;;
57593;SDS011;43423;46.510;6.686;2023-11-21T12:10:38;4.05;;;1.35;;
57593;SDS011;43423;46.510;6.686;2023-11-21T12:13:06;3.55;;;1.10;;
57593;SDS011;43423;46.510;6.686;2023-11-21T12:15:35;4.10;;;1.60;;
57593;SDS011;43423;46.510;6.686;2023-11-21T12:18:01;3.58;;;1.60;;
57593;SDS011;43423;46.510;6.686;2023-11-21T12:20:29;3.45;;;0.95;;
57593;SDS011;43423;46.510;6.686;2023-11-21T12:22:57;1.60;;;1.50;;
57593;SDS011;43423;46.510;6.686;2023-11-21T12:25:27;8.35;;;1.20;;
57593;SDS011;43423;46.510;6.686;2023-11-21T12:27:54;2.58;;;0.80;;
57593;SDS011;43423;46.510;6.686;2023-11-21T12:30:22;3.45;;;1.20;;
57593;SDS011;43423;46.510;6.686;2023-11-21T12:32:49;4.60;;;1.30;;
57593;SDS011;43423;46.510;6.686;2023-11-21T12:35:18;3.47;;;1.27;;
57593;SDS011;43423;46.510;6.686;2023-11-21T12:37:51;2.88;;;1.00;;
57593;SDS011;43423;46.510;6.686;2023-11-21T12:40:17;5.13;;;1.15;;
57593;SDS011;43423;46.510;6.686;2023-11-21T12:42:52;5.68;;;1.35;;
57593;SDS011;43423;46.510;6.686;2023-11-21T12:45:20;5.22;;;1.05;;
57593;SDS011;43423;46.510;6.686;2023-11-21T12:48:02;2.50;;;0.98;;
57593;SDS011;43423;46.510;6.686;2023-11-21T12:50:34;4.65;;;0.70;;
57593;SDS011;43423;46.510;6.686;2023-11-21T12:53:11;1.58;;;0.55;;
57593;SDS011;43423;46.510;6.686;2023-11-21T12:55:38;1.98;;;0.65;;
57593;SDS011;43423;46.510;6.686;2023-11-21T12:58:05;0.85;;;0.52;;
57593;SDS011;43423;46.510;6.686;2023-11-21T13:00:40;1.92;;;1.00;;
57593;SDS011;43423;46.510;6.686;2023-11-21T13:03:11;3.95;;;1.15;;
57593;SDS011;43423;46.510;6.686;2023-11-21T13:05:42;5.40;;;1.33;;
57593;SDS011;43423;46.510;6.686;2023-11-21T13:08:16;1.75;;;0.70;;
57593;SDS011;43423;46.510;6.686;2023-11-21T13:10:45;5.68;;;1.10;;
57593;SDS011;43423;46.510;6.686;2023-11-21T13:13:14;5.10;;;0.77;;
57593;SDS011;43423;46.510;6.686;2023-11-21T13:15:53;2.40;;;0.88;;
57593;SDS011;43423;46.510;6.686;2023-11-21T13:18:23;6.15;;;1.40;;
57593;SDS011;43423;46.510;6.686;2023-11-21T13:20:50;1.63;;;1.00;;
57593;SDS011;43423;46.510;6.686;2023-11-21T13:23:15;1.27;;;0.60;;
57593;SDS011;43423;46.510;6.686;2023-11-21T13:25:42;0.45;;;0.35;;
57593;SDS011;43423;46.510;6.686;2023-11-21T13:28:10;0.25;;;0.25;;
57593;SDS011;43423;46.510;6.686;2023-11-21T13:30:37;0.38;;;0.30;;
57593;SDS011;43423;46.510;6.686;2023-11-21T13:33:05;0.52;;;0.30;;
57593;SDS011;43423;46.510;6.686;2023-11-21T13:35:36;0.10;;;0.10;;
57593;SDS011;43423;46.510;6.686;2023-11-21T13:38:10;1.10;;;0.40;;
57593;SDS011;43423;46.510;6.686;2023-11-21T13:40:38;0.57;;;0.30;;
57593;SDS011;43423;46.510;6.686;2023-11-21T13:43:10;0.20;;;0.20;;
57593;SDS011;43423;46.510;6.686;2023-11-21T13:45:37;2.08;;;0.50;;
57593;SDS011;43423;46.510;6.686;2023-11-21T13:48:04;0.65;;;0.43;;
57593;SDS011;43423;46.510;6.686;2023-11-21T13:50:38;0.50;;;0.40;;
57593;SDS011;43423;46.510;6.686;2023-11-21T13:53:11;0.70;;;0.50;;
57593;SDS011;43423;46.510;6.686;2023-11-21T13:55:51;3.08;;;0.70;;
57593;SDS011;43423;46.510;6.686;2023-11-21T13:58:25;0.60;;;0.50;;
57593;SDS011;43423;46.510;6.686;2023-11-21T14:01:09;2.60;;;0.68;;
57593;SDS011;43423;46.510;6.686;2023-11-21T14:03:54;1.25;;;0.70;;
57593;SDS011;43423;46.510;6.686;2023-11-21T14:06:26;1.70;;;0.77;;
57593;SDS011;43423;46.510;6.686;2023-11-21T14:08:59;1.92;;;0.98;;
57593;SDS011;43423;46.510;6.686;2023-11-21T14:11:32;1.98;;;0.55;;
57593;SDS011;43423;46.510;6.686;2023-11-21T14:13:59;1.30;;;1.08;;
57593;SDS011;43423;46.510;6.686;2023-11-21T14:16:25;0.50;;;0.50;;
57593;SDS011;43423;46.510;6.686;2023-11-21T14:18:51;1.35;;;0.40;;
57593;SDS011;43423;46.510;6.686;2023-11-21T14:21:29;0.65;;;0.45;;
57593;SDS011;43423;46.510;6.686;2023-11-21T14:23:54;1.38;;;0.68;;
57593;SDS011;43423;46.510;6.686;2023-11-21T14:26:21;1.40;;;1.13;;
57593;SDS011;43423;46.510;6.686;2023-11-21T14:28:49;3.72;;;0.60;;
57593;SDS011;43423;46.510;6.686;2023-11-21T14:31:14;0.40;;;0.30;;
57593;SDS011;43423;46.510;6.686;2023-11-21T14:33:42;1.75;;;0.60;;
57593;SDS011;43423;46.510;6.686;2023-11-21T14:36:11;4.18;;;0.50;;
57593;SDS011;43423;46.510;6.686;2023-11-21T14:38:37;0.45;;;0.30;;
57593;SDS011;43423;46.510;6.686;2023-11-21T14:41:08;0.68;;;0.50;;
57593;SDS011;43423;46.510;6.686;2023-11-21T14:43:34;1.98;;;0.43;;
57593;SDS011;43423;46.510;6.686;2023-11-21T14:46:01;1.17;;;0.50;;
57593;SDS011;43423;46.510;6.686;2023-11-21T14:48:29;0.30;;;0.22;;
57593;SDS011;43423;46.510;6.686;2023-11-21T14:51:13;0.45;;;0.30;;
57593;SDS011;43423;46.510;6.686;2023-11-21T14:53:55;0.43;;;0.43;;
57593;SDS011;43423;46.510;6.686;2023-11-21T14:56:23;0.70;;;0.70;;
57593;SDS011;43423;46.510;6.686;2023-11-21T14:58:59;0.65;;;0.45;;
57593;SDS011;43423;46.510;6.686;2023-11-21T15:01:41;1.35;;;0.75;;
57593;SDS011;43423;46.510;6.686;2023-11-21T15:04:23;2.45;;;0.55;;
57593;SDS011;43423;46.510;6.686;2023-11-21T15:07:03;1.20;;;0.60;;